Time;durP1;ratioP1;P1;durP2;ratioP2;P2;SDS_P1;SDS_P2;PMS_P1;PMS_P2;Temp;Humidity;BMP_temperature;BMP_pressure;BME280_temperature;BME280_humidity;BME280_pressure;Samples;Min_cycle;Max_cycle;Signal;HPM_P1;HPM_P2
2022/10/26 00:01:06;;;;;;;5.30;3.37;;;11.20;99.90;;;;;;5075191;28;20450;-62
2022/10/26 00:03:34;;;;;;;5.40;3.10;;;11.30;1.00;;;;;;5074790;28;20461;-61
2022/10/26 00:06:13;;;;;;;3.60;2.80;;;11.30;99.90;;;;;;5074536;28;20485;-60
2022/10/26 00:08:41;;;;;;;8.73;3.30;;;11.20;99.90;;;;;;5075023;28;20509;-62
2022/10/26 00:11:09;;;;;;;3.70;2.90;;;11.20;99.90;;;;;;5075061;28;20551;-61
2022/10/26 00:13:40;;;;;;;5.47;2.90;;;11.30;99.90;;;;;;5074698;28;20472;-62
2022/10/26 00:16:12;;;;;;;10.60;3.27;;;11.30;99.90;;;;;;5074137;28;20458;-62
2022/10/26 00:18:40;;;;;;;7.73;3.40;;;11.30;99.90;;;;;;5075093;28;20528;-62
2022/10/26 00:21:10;;;;;;;8.57;3.30;;;11.40;99.90;;;;;;5074220;28;20756;-61
2022/10/26 00:23:38;;;;;;;4.23;2.50;;;11.40;99.90;;;;;;5073572;28;20785;-62
2022/10/26 00:26:07;;;;;;;7.67;2.97;;;11.50;1.00;;;;;;5073527;28;20813;-61
2022/10/26 00:28:40;;;;;;;4.90;3.03;;;11.50;1.00;;;;;;5074787;28;20904;-62
2022/10/26 00:31:11;;;;;;;5.20;3.00;;;11.60;99.90;;;;;;5075147;28;20495;-62
2022/10/26 00:33:39;;;;;;;6.20;3.70;;;11.70;99.90;;;;;;5074981;28;20479;-62
2022/10/26 00:36:12;;;;;;;5.73;2.90;;;11.80;1.00;;;;;;5073880;28;20471;-62
2022/10/26 00:38:44;;;;;;;5.67;2.93;;;11.80;1.00;;;;;;5074568;28;20465;-62
2022/10/26 00:41:15;;;;;;;6.67;3.60;;;11.80;99.90;;;;;;5074739;28;20464;-62
2022/10/26 00:43:42;;;;;;;7.70;2.90;;;11.90;99.90;;;;;;5075042;28;20589;-62
2022/10/26 00:46:13;;;;;;;5.30;3.10;;;11.90;99.90;;;;;;5074532;28;20743;-62
2022/10/26 00:48:44;;;;;;;6.93;3.13;;;11.90;99.90;;;;;;5073885;28;20509;-62
2022/10/26 00:51:17;;;;;;;7.60;3.37;;;12.00;99.90;;;;;;5074358;28;20493;-61
2022/10/26 00:53:45;;;;;;;6.03;2.60;;;12.00;99.90;;;;;;5074881;28;20818;-62
2022/10/26 00:56:12;;;;;;;6.10;3.10;;;11.90;99.90;;;;;;5074624;28;20461;-62
2022/10/26 00:58:40;;;;;;;8.40;2.83;;;11.90;99.90;;;;;;5074440;28;20467;-62
2022/10/26 01:01:08;;;;;;;4.67;2.97;;;12.00;63.80;;;;;;5073655;28;20464;-62
2022/10/26 01:03:37;;;;;;;5.00;2.20;;;12.00;31.70;;;;;;5074376;28;20461;-62
2022/10/26 01:06:05;;;;;;;3.87;2.50;;;12.10;1.00;;;;;;5074331;28;20461;-62
2022/10/26 01:08:34;;;;;;;3.90;2.53;;;12.10;1.00;;;;;;5074382;28;20465;-62
2022/10/26 01:11:02;;;;;;;4.00;2.73;;;12.20;1.00;;;;;;5074159;28;20600;-61
2022/10/26 01:13:34;;;;;;;6.70;4.60;;;12.20;1.00;;;;;;5073950;28;20461;-62
2022/10/26 01:16:15;;;;;;;5.20;2.67;;;12.20;1.00;;;;;;5074351;28;20472;-62
2022/10/26 01:18:53;;;;;;;5.70;2.60;;;12.20;1.00;;;;;;5074175;28;20551;-62
2022/10/26 01:21:45;;;;;;;6.67;2.63;;;12.20;1.00;;;;;;5073799;28;20485;-62
2022/10/26 01:25:06;;;;;;;5.33;2.90;;;12.30;1.00;;;;;;5072402;28;20461;-62
2022/10/26 01:27:35;;;;;;;5.70;3.10;;;12.20;1.00;;;;;;5073853;28;20492;-62
2022/10/26 01:30:28;;;;;;;6.43;2.80;;;12.20;1.00;;;;;;5078442;28;20743;-62
2022/10/26 01:33:21;;;;;;;8.73;2.90;;;12.20;1.00;;;;;;5077881;28;20889;-62
2022/10/26 01:36:02;;;;;;;5.50;2.57;;;12.30;1.00;;;;;;5068691;28;20473;-62
2022/10/26 01:38:34;;;;;;;5.00;2.80;;;12.30;1.00;;;;;;5077431;28;20464;-62
2022/10/26 01:41:08;;;;;;;4.77;2.87;;;12.40;1.00;;;;;;5074226;28;20551;-62
2022/10/26 01:43:40;;;;;;;5.53;2.73;;;12.30;99.90;;;;;;5076836;28;20893;-62
2022/10/26 01:46:14;;;;;;;6.43;3.07;;;12.40;99.90;;;;;;5076671;28;20457;-62
2022/10/26 01:48:43;;;;;;;4.90;2.67;;;12.40;99.90;;;;;;5077680;28;20467;-62
2022/10/26 01:51:13;;;;;;;7.13;3.07;;;12.40;99.90;;;;;;5077623;28;20510;-62
2022/10/26 01:53:45;;;;;;;4.53;2.63;;;12.40;99.90;;;;;;5077271;28;20488;-62
2022/10/26 01:56:18;;;;;;;7.40;2.90;;;12.40;99.90;;;;;;5076496;28;20465;-62
2022/10/26 01:59:19;;;;;;;6.37;2.73;;;12.50;99.90;;;;;;5076638;28;20457;-62
2022/10/26 02:02:21;;;;;;;6.27;3.00;;;12.50;99.90;;;;;;5076263;28;20458;-62
2022/10/26 02:05:06;;;;;;;6.57;3.47;;;12.50;99.90;;;;;;5076886;28;20797;-62
2022/10/26 02:07:40;;;;;;;4.20;2.40;;;12.60;99.90;;;;;;5077186;28;20467;-62
2022/10/26 02:10:18;;;;;;;7.20;2.70;;;12.60;99.90;;;;;;5077192;28;20501;-62
2022/10/26 02:12:58;;;;;;;4.53;2.70;;;12.60;99.90;;;;;;5076824;28;20486;-62
2022/10/26 02:15:35;;;;;;;4.17;2.53;;;12.70;99.90;;;;;;5076922;28;20457;-62
2022/10/26 02:18:11;;;;;;;4.20;2.60;;;12.70;99.90;;;;;;5077112;28;20463;-62
2022/10/26 02:20:45;;;;;;;4.13;2.70;;;12.70;99.90;;;;;;5077004;28;20462;-62
2022/10/26 02:23:17;;;;;;;8.23;2.40;;;12.70;99.90;;;;;;5077332;28;20468;-62
2022/10/26 02:25:51;;;;;;;7.90;2.90;;;12.80;99.90;;;;;;5077529;28;20439;-62
2022/10/26 02:28:23;;;;;;;5.97;2.87;;;12.80;99.90;;;;;;5076356;28;20461;-62
2022/10/26 02:30:55;;;;;;;4.80;2.57;;;12.80;99.90;;;;;;5076864;28;20526;-61
2022/10/26 02:33:24;;;;;;;4.63;2.47;;;12.90;99.90;;;;;;5076448;28;20461;-61
2022/10/26 02:35:54;;;;;;;3.50;2.63;;;12.80;99.90;;;;;;5075521;28;20859;-62
2022/10/26 02:38:24;;;;;;;6.43;3.07;;;12.90;99.90;;;;;;5076147;28;20465;-61
2022/10/26 02:40:52;;;;;;;5.73;3.10;;;12.90;99.90;;;;;;5076348;28;20457;-62
2022/10/26 02:43:21;;;;;;;3.63;2.40;;;12.90;99.90;;;;;;5076918;28;20453;-60
2022/10/26 02:45:54;;;;;;;6.63;2.93;;;12.90;99.90;;;;;;5076526;28;20749;-61
2022/10/26 02:48:24;;;;;;;4.83;2.77;;;12.80;99.90;;;;;;5076672;28;20461;-61
2022/10/26 02:51:00;;;;;;;5.00;3.00;;;12.80;99.90;;;;;;5076201;28;20493;-61
2022/10/26 02:53:32;;;;;;;5.53;2.30;;;12.90;99.90;;;;;;5076270;28;20862;-62
2022/10/26 02:56:04;;;;;;;6.20;3.40;;;12.90;99.90;;;;;;5076369;28;20543;-61
2022/10/26 02:58:36;;;;;;;8.53;3.23;;;12.90;99.90;;;;;;5076168;28;20461;-61
2022/10/26 03:01:04;;;;;;;8.63;2.90;;;12.90;99.90;;;;;;5076521;28;20464;-61
2022/10/26 03:03:32;;;;;;;8.33;2.83;;;12.90;99.90;;;;;;5075213;28;20462;-62
2022/10/26 03:06:04;;;;;;;6.60;2.70;;;12.90;99.90;;;;;;5076119;28;20894;-61
2022/10/26 03:08:31;;;;;;;5.10;2.77;;;12.90;99.90;;;;;;5075583;28;20977;-62
2022/10/26 03:10:58;;;;;;;4.77;2.90;;;12.90;99.90;;;;;;5076016;28;20497;-61
2022/10/26 03:13:29;;;;;;;6.30;2.70;;;13.00;99.90;;;;;;5075700;28;20465;-62
2022/10/26 03:15:58;;;;;;;5.37;2.73;;;13.00;99.90;;;;;;5076168;28;20534;-62
2022/10/26 03:18:25;;;;;;;6.00;2.60;;;13.10;99.90;;;;;;5067871;28;20559;-61
2022/10/26 03:20:55;;;;;;;8.67;2.50;;;13.10;99.90;;;;;;5064406;28;20457;-61
2022/10/26 03:23:24;;;;;;;5.90;2.60;;;13.10;99.90;;;;;;5075255;28;20485;-62
2022/10/26 03:25:51;;;;;;;3.43;2.80;;;13.10;99.90;;;;;;5075449;28;20469;-61
2022/10/26 03:28:19;;;;;;;5.10;2.60;;;13.20;99.90;;;;;;5075445;28;20461;-62
2022/10/26 03:30:46;;;;;;;8.47;2.77;;;13.20;99.90;;;;;;5070930;28;20494;-62
2022/10/26 03:33:16;;;;;;;3.80;2.50;;;13.30;99.90;;;;;;5065965;28;20812;-61
2022/10/26 03:35:43;;;;;;;6.30;2.87;;;13.30;99.90;;;;;;5075440;28;20475;-61
2022/10/26 03:38:10;;;;;;;5.10;3.07;;;13.30;99.90;;;;;;5075448;28;20461;-61
2022/10/26 03:40:41;;;;;;;5.27;2.90;;;13.30;99.90;;;;;;5072605;28;20462;-62
2022/10/26 03:43:08;;;;;;;11.17;3.43;;;13.30;99.90;;;;;;5075070;28;20465;-61
2022/10/26 03:45:36;;;;;;;7.97;3.10;;;13.30;99.90;;;;;;5074922;28;20515;-61
2022/10/26 03:48:06;;;;;;;4.20;2.63;;;13.40;99.90;;;;;;5075213;28;20467;-62
2022/10/26 03:50:33;;;;;;;9.23;3.27;;;13.30;99.90;;;;;;5074562;28;20885;-60
2022/10/26 03:53:00;;;;;;;4.30;2.73;;;13.30;99.90;;;;;;5075331;28;20462;-61
2022/10/26 03:55:28;;;;;;;7.20;2.97;;;13.40;95.70;;;;;;5075196;28;20489;-62
2022/10/26 03:57:59;;;;;;;7.53;2.90;;;13.40;78.90;;;;;;5075441;28;20461;-61
2022/10/26 04:00:29;;;;;;;5.00;2.80;;;13.40;60.60;;;;;;5075881;28;20875;-63
2022/10/26 04:02:58;;;;;;;4.50;2.67;;;13.50;51.30;;;;;;5075100;28;20465;-60
2022/10/26 04:05:27;;;;;;;9.17;2.80;;;13.50;52.80;;;;;;5074925;28;20546;-61
2022/10/26 04:07:55;;;;;;;6.93;3.03;;;13.50;39.10;;;;;;5075254;28;20469;-61
2022/10/26 04:10:22;;;;;;;6.77;2.60;;;13.50;41.30;;;;;;5074881;28;20520;-61
2022/10/26 04:12:49;;;;;;;7.43;2.60;;;13.60;17.50;;;;;;5074808;28;20536;-61
2022/10/26 04:15:19;;;;;;;4.13;2.47;;;13.60;1.00;;;;;;5074694;28;20489;-61
2022/10/26 04:17:46;;;;;;;4.07;2.43;;;13.60;1.00;;;;;;5075007;28;20467;-60
2022/10/26 04:20:14;;;;;;;6.90;2.70;;;13.60;1.00;;;;;;5075213;28;20487;-61
2022/10/26 04:22:41;;;;;;;4.43;2.90;;;13.60;1.00;;;;;;5074812;28;20461;-61
2022/10/26 04:25:09;;;;;;;5.40;2.53;;;13.60;1.00;;;;;;5074208;28;20471;-61
2022/10/26 04:27:36;;;;;;;6.13;3.13;;;13.60;1.00;;;;;;5074863;28;20891;-61
2022/10/26 04:30:04;;;;;;;6.40;3.30;;;13.50;1.00;;;;;;5074799;28;20557;-61
2022/10/26 04:32:33;;;;;;;9.87;3.33;;;13.50;1.00;;;;;;5074310;28;20493;-61
2022/10/26 04:35:00;;;;;;;6.30;2.47;;;13.40;1.00;;;;;;5074334;28;20812;-61
2022/10/26 04:37:27;;;;;;;6.87;2.60;;;13.40;1.00;;;;;;5074952;28;20465;-61
2022/10/26 04:39:54;;;;;;;6.20;3.40;;;13.40;1.00;;;;;;5074633;28;20463;-61
2022/10/26 04:42:21;;;;;;;5.70;2.50;;;13.40;1.00;;;;;;5074882;28;20467;-61
2022/10/26 04:44:48;;;;;;;4.30;2.43;;;13.50;1.00;;;;;;5074501;28;20763;-61
2022/10/26 04:47:16;;;;;;;5.30;2.60;;;13.50;1.00;;;;;;5074979;28;20508;-61
2022/10/26 04:49:44;;;;;;;3.70;2.10;;;13.60;1.00;;;;;;5074352;28;20468;-61
2022/10/26 04:52:11;;;;;;;5.13;2.47;;;13.60;1.00;;;;;;5072689;28;20950;-61
2022/10/26 04:54:39;;;;;;;5.10;2.70;;;13.60;1.00;;;;;;5072439;28;20503;-61
2022/10/26 04:57:06;;;;;;;6.83;2.37;;;13.60;1.00;;;;;;5072996;28;20476;-62
2022/10/26 04:59:35;;;;;;;6.10;2.90;;;13.60;1.00;;;;;;5072836;28;20982;-61
2022/10/26 05:02:02;;;;;;;7.97;2.57;;;13.60;1.00;;;;;;5075661;28;20476;-61
2022/10/26 05:04:29;;;;;;;5.40;2.50;;;13.70;1.00;;;;;;5074345;28;20462;-60
2022/10/26 05:06:58;;;;;;;4.87;2.27;;;13.70;1.00;;;;;;5077573;28;20457;-60
2022/10/26 05:09:25;;;;;;;6.40;2.80;;;13.60;1.00;;;;;;5076828;28;20485;-61
2022/10/26 05:11:53;;;;;;;7.60;3.73;;;13.60;1.00;;;;;;5077176;28;20592;-59
2022/10/26 05:14:20;;;;;;;3.10;2.33;;;13.60;1.00;;;;;;5075801;28;20552;-61
2022/10/26 05:16:50;;;;;;;9.63;3.00;;;13.60;1.00;;;;;;5076305;28;21139;-60
2022/10/26 05:19:17;;;;;;;4.83;2.43;;;13.60;1.00;;;;;;5077192;28;20456;-61
2022/10/26 05:21:44;;;;;;;4.50;3.03;;;13.70;1.00;;;;;;5077403;28;20960;-60
2022/10/26 05:24:13;;;;;;;5.17;3.50;;;13.60;1.00;;;;;;5075743;28;20471;-59
2022/10/26 05:26:40;;;;;;;5.00;3.07;;;13.60;1.00;;;;;;5071778;28;20460;-60
2022/10/26 05:29:08;;;;;;;5.40;4.50;;;13.70;1.00;;;;;;5075433;28;20460;-61
2022/10/26 05:31:35;;;;;;;9.70;3.73;;;13.70;1.00;;;;;;5075546;28;20489;-59
2022/10/26 05:34:02;;;;;;;4.40;3.00;;;13.70;1.00;;;;;;5075375;28;21059;-60
2022/10/26 05:36:29;;;;;;;7.10;3.13;;;13.70;1.00;;;;;;5074434;28;20461;-60
2022/10/26 05:38:58;;;;;;;4.40;2.67;;;13.80;1.00;;;;;;5076496;28;20564;-61
2022/10/26 05:41:27;;;;;;;3.93;2.70;;;13.80;1.00;;;;;;5075858;28;20465;-60
2022/10/26 05:43:54;;;;;;;5.10;2.67;;;13.80;1.00;;;;;;5077013;28;20605;-58
2022/10/26 05:46:21;;;;;;;7.33;2.57;;;13.80;1.00;;;;;;5076159;28;20436;-63
2022/10/26 05:48:48;;;;;;;3.50;2.80;;;13.80;1.00;;;;;;5070903;28;20886;-63
2022/10/26 05:51:15;;;;;;;4.23;2.33;;;13.70;1.00;;;;;;5074821;28;20495;-63
2022/10/26 05:53:43;;;;;;;5.30;2.80;;;13.70;1.00;;;;;;5074761;28;20468;-63
2022/10/26 05:56:19;;;;;;;4.93;2.90;;;13.70;1.00;;;;;;5075522;28;20465;-63
2022/10/26 05:58:48;;;;;;;5.13;3.33;;;13.70;1.00;;;;;;5071200;28;20468;-63
2022/10/26 06:01:31;;;;;;;6.93;2.40;;;13.60;1.00;;;;;;5072282;28;20462;-63
2022/10/26 06:04:10;;;;;;;6.43;3.70;;;13.60;1.00;;;;;;5073882;28;20825;-63
2022/10/26 06:06:41;;;;;;;3.80;3.20;;;13.60;1.00;;;;;;5072896;28;20503;-63
2022/10/26 06:09:11;;;;;;;7.93;2.53;;;13.70;1.00;;;;;;5072677;28;20966;-63
2022/10/26 06:11:40;;;;;;;3.93;3.00;;;13.70;1.00;;;;;;5073614;28;20499;-63
2022/10/26 06:14:12;;;;;;;6.30;2.53;;;13.80;1.00;;;;;;5073280;28;20469;-63
2022/10/26 06:16:54;;;;;;;32.57;6.20;;;13.80;1.00;;;;;;5062704;28;20883;-63
2022/10/26 06:19:34;;;;;;;3.17;2.27;;;13.80;1.00;;;;;;5078206;28;20466;-63
2022/10/26 06:22:20;;;;;;;4.37;2.23;;;13.80;1.00;;;;;;5077550;28;20779;-63
2022/10/26 06:24:56;;;;;;;4.10;2.13;;;13.90;1.00;;;;;;5078516;28;20471;-63
2022/10/26 06:27:32;;;;;;;5.53;2.43;;;13.90;1.00;;;;;;5073908;28;20471;-63
2022/10/26 06:30:05;;;;;;;4.63;2.30;;;13.90;1.00;;;;;;5077197;28;20469;-63
2022/10/26 06:32:33;;;;;;;4.47;2.43;;;14.00;1.00;;;;;;5077498;28;20500;-63
2022/10/26 06:35:16;;;;;;;8.70;3.00;;;14.00;1.00;;;;;;5077997;28;20461;-63
2022/10/26 06:37:46;;;;;;;4.43;3.00;;;14.00;1.00;;;;;;5078161;28;20523;-63
2022/10/26 06:40:17;;;;;;;6.00;2.57;;;14.00;1.00;;;;;;5078439;28;20939;-63
2022/10/26 06:42:45;;;;;;;3.00;2.00;;;14.10;1.00;;;;;;5078369;28;20458;-63
2022/10/26 06:45:16;;;;;;;6.07;1.77;;;14.10;1.00;;;;;;5077488;28;20911;-63
2022/10/26 06:47:52;;;;;;;3.80;2.00;;;14.10;1.00;;;;;;5071015;28;20462;-63
2022/10/26 06:50:30;;;;;;;3.07;2.00;;;14.10;1.00;;;;;;5074674;28;20465;-63
2022/10/26 06:53:06;;;;;;;3.33;2.00;;;14.10;1.00;;;;;;5067989;28;20942;-63
2022/10/26 06:55:40;;;;;;;2.50;2.20;;;14.20;1.00;;;;;;5077878;28;20461;-63
2022/10/26 06:58:15;;;;;;;10.63;2.73;;;14.20;1.00;;;;;;5076765;28;20468;-64
2022/10/26 07:00:46;;;;;;;5.67;2.10;;;14.20;1.00;;;;;;5077238;28;20465;-63
2022/10/26 07:03:13;;;;;;;11.00;2.67;;;14.30;1.00;;;;;;5076326;28;20459;-63
2022/10/26 07:05:40;;;;;;;4.50;2.63;;;14.30;1.00;;;;;;5076424;28;20458;-63
2022/10/26 07:08:07;;;;;;;4.60;2.43;;;14.30;1.00;;;;;;5074467;28;20473;-63
2022/10/26 07:10:37;;;;;;;6.63;2.43;;;14.30;1.00;;;;;;5069340;28;20910;-63
2022/10/26 07:13:05;;;;;;;4.87;3.83;;;14.40;1.00;;;;;;5076141;28;20583;-63
2022/10/26 07:15:41;;;;;;;5.20;2.67;;;14.40;1.00;;;;;;5077714;28;20747;-62
2022/10/26 07:18:12;;;;;;;12.20;2.63;;;14.50;1.00;;;;;;5076283;28;20461;-63
2022/10/26 07:20:40;;;;;;;3.70;1.93;;;14.50;1.00;;;;;;5076247;28;20465;-63
2022/10/26 07:23:10;;;;;;;3.53;1.87;;;14.60;1.00;;;;;;5075495;28;20450;-63
2022/10/26 07:25:42;;;;;;;3.17;2.30;;;14.60;1.00;;;;;;5075839;28;20461;-63
2022/10/26 07:28:10;;;;;;;4.60;2.10;;;14.70;1.00;;;;;;5075360;28;20465;-63
2022/10/26 07:30:41;;;;;;;5.00;2.10;;;14.80;1.00;;;;;;5076732;28;20460;-63
2022/10/26 07:33:12;;;;;;;2.73;2.07;;;14.90;1.00;;;;;;5075126;28;20489;-63
2022/10/26 07:35:41;;;;;;;6.87;3.17;;;14.90;1.00;;;;;;5076862;28;20462;-63
2022/10/26 07:38:08;;;;;;;3.50;2.07;;;15.00;1.00;;;;;;5076883;28;20892;-63
2022/10/26 07:40:36;;;;;;;5.10;2.67;;;15.00;1.00;;;;;;5077082;28;20472;-64
2022/10/26 07:43:04;;;;;;;6.10;3.20;;;15.10;1.00;;;;;;5076607;28;20499;-63
2022/10/26 07:45:36;;;;;;;3.13;2.00;;;15.20;1.00;;;;;;5076378;28;20461;-63
2022/10/26 07:48:07;;;;;;;8.10;2.50;;;15.20;1.00;;;;;;5066666;28;20453;-62
2022/10/26 07:50:35;;;;;;;3.87;2.60;;;15.20;99.90;;;;;;5076365;28;20802;-63
2022/10/26 07:53:05;;;;;;;3.60;2.77;;;15.30;99.90;;;;;;5075802;28;20519;-63
2022/10/26 07:55:32;;;;;;;6.77;2.20;;;15.30;99.90;;;;;;5057682;28;20883;-62
2022/10/26 07:58:00;;;;;;;5.60;2.70;;;15.30;99.90;;;;;;5075048;28;20446;-63
2022/10/26 08:00:28;;;;;;;5.77;2.67;;;15.30;99.90;;;;;;5075874;28;20457;-62
2022/10/26 08:02:55;;;;;;;3.60;2.50;;;15.20;1.00;;;;;;5075558;28;20485;-63
2022/10/26 08:05:23;;;;;;;5.77;2.17;;;15.30;1.00;;;;;;5075686;28;20906;-63
2022/10/26 08:07:51;;;;;;;4.30;2.43;;;15.40;1.00;;;;;;5075678;28;20567;-63
2022/10/26 08:10:22;;;;;;;3.40;2.07;;;15.70;1.00;;;;;;5068861;28;20486;-63
2022/10/26 08:12:52;;;;;;;4.57;2.30;;;16.10;99.90;;;;;;5075474;28;20493;-62
2022/10/26 08:15:20;;;;;;;3.23;2.17;;;16.50;99.90;;;;;;5076306;28;20496;-63
2022/10/26 08:17:47;;;;;;;3.70;2.30;;;16.50;99.90;;;;;;5076379;28;20465;-63
2022/10/26 08:20:17;;;;;;;5.43;2.43;;;16.40;99.90;;;;;;5076609;28;20461;-62
2022/10/26 08:22:46;;;;;;;4.13;2.73;;;16.50;99.90;;;;;;5075620;28;20487;-63
2022/10/26 08:25:15;;;;;;;8.03;2.23;;;16.90;99.90;;;;;;5074859;28;20465;-63
2022/10/26 08:27:42;;;;;;;2.87;2.10;;;17.20;99.90;;;;;;5062972;28;20457;-63
2022/10/26 08:30:10;;;;;;;4.90;2.47;;;17.00;99.90;;;;;;5075202;28;20472;-63
2022/10/26 08:32:37;;;;;;;5.83;2.07;;;16.70;99.90;;;;;;5075251;28;20489;-63
2022/10/26 08:35:05;;;;;;;3.93;2.20;;;16.70;99.90;;;;;;5075103;28;20460;-62
2022/10/26 08:37:33;;;;;;;3.90;2.37;;;17.00;99.90;;;;;;5081989;28;20457;-62
2022/10/26 08:40:00;;;;;;;5.10;2.40;;;17.30;99.90;;;;;;5083258;28;20467;-63
2022/10/26 08:42:36;;;;;;;4.83;2.30;;;17.40;99.90;;;;;;5082463;28;20483;-62
2022/10/26 08:45:11;;;;;;;3.27;2.00;;;17.50;99.90;;;;;;5079418;28;20464;-62
2022/10/26 08:47:46;;;;;;;3.30;2.33;;;17.70;99.90;;;;;;5082125;28;20453;-63
2022/10/26 08:50:24;;;;;;;6.47;2.40;;;17.80;99.90;;;;;;5083005;28;20488;-62
2022/10/26 08:53:00;;;;;;;3.40;2.40;;;17.90;99.90;;;;;;5082304;28;20577;-62
2022/10/26 08:55:34;;;;;;;11.53;2.60;;;18.10;99.90;;;;;;5082328;28;20526;-62
2022/10/26 08:58:10;;;;;;;6.20;2.73;;;18.20;99.90;;;;;;5076545;28;20889;-62
2022/10/26 09:00:39;;;;;;;6.07;3.10;;;18.50;99.90;;;;;;5082152;28;20464;-62
2022/10/26 09:03:14;;;;;;;4.07;2.90;;;18.60;99.90;;;;;;5082450;28;20484;-63
2022/10/26 09:05:52;;;;;;;4.33;2.70;;;18.70;99.90;;;;;;5081943;28;20469;-63
2022/10/26 09:08:29;;;;;;;6.37;2.67;;;18.80;99.90;;;;;;5081009;28;20453;-63
2022/10/26 09:11:05;;;;;;;6.47;2.63;;;18.90;99.90;;;;;;5081857;28;20575;-63
2022/10/26 09:13:42;;;;;;;5.27;2.67;;;19.20;99.90;;;;;;5081417;28;20493;-63
2022/10/26 09:16:22;;;;;;;5.83;2.70;;;19.20;99.90;;;;;;5079117;28;20457;-63
2022/10/26 09:19:00;;;;;;;5.20;3.03;;;19.40;99.90;;;;;;5079424;28;20435;-63
2022/10/26 09:21:40;;;;;;;4.10;2.97;;;19.50;99.90;;;;;;5079780;28;20932;-62
2022/10/26 09:24:20;;;;;;;8.30;3.13;;;19.70;99.90;;;;;;5074731;28;20907;-63
2022/10/26 09:26:54;;;;;;;3.77;2.60;;;19.90;99.90;;;;;;5078442;28;20537;-63
2022/10/26 09:29:29;;;;;;;2.93;2.40;;;20.00;99.90;;;;;;5081143;28;20464;-63
2022/10/26 09:31:59;;;;;;;5.17;3.00;;;19.90;99.90;;;;;;5079509;28;20431;-63
2022/10/26 09:34:34;;;;;;;5.83;2.70;;;20.20;99.90;;;;;;5082369;28;20471;-63
2022/10/26 09:37:12;;;;;;;4.57;2.50;;;20.10;99.90;;;;;;5082493;28;20478;-63
2022/10/26 09:39:45;;;;;;;4.40;3.20;;;19.90;99.90;;;;;;5082329;28;20465;-63
2022/10/26 09:42:19;;;;;;;4.30;2.50;;;19.90;99.90;;;;;;5065037;28;20866;-63
2022/10/26 09:44:54;;;;;;;3.60;2.50;;;20.30;99.90;;;;;;5078178;28;20515;-63
2022/10/26 09:47:31;;;;;;;8.03;2.77;;;20.60;99.90;;;;;;5079622;28;20465;-63
2022/10/26 09:50:05;;;;;;;3.80;2.73;;;20.90;99.90;;;;;;5078569;28;20461;-63
2022/10/26 09:52:33;;;;;;;4.87;2.87;;;20.50;99.90;;;;;;5077889;28;20489;-63
2022/10/26 09:55:00;;;;;;;4.90;2.30;;;20.70;99.90;;;;;;5077400;28;20914;-63
2022/10/26 09:57:27;;;;;;;6.50;3.00;;;20.90;99.90;;;;;;5078551;28;20471;-63
2022/10/26 09:59:57;;;;;;;4.13;2.90;;;20.50;99.90;;;;;;5078242;28;20480;-63
2022/10/26 10:02:38;;;;;;;19.90;3.97;;;20.70;99.90;;;;;;5078727;28;20465;-63
2022/10/26 10:05:24;;;;;;;7.50;3.67;;;20.40;99.90;;;;;;5077440;28;20497;-63
2022/10/26 10:07:51;;;;;;;5.30;3.20;;;20.40;99.90;;;;;;5076490;28;20785;-64
2022/10/26 10:10:20;;;;;;;4.07;2.70;;;20.30;99.90;;;;;;5077192;28;20495;-63
2022/10/26 10:12:51;;;;;;;8.13;3.20;;;20.40;99.90;;;;;;5078168;28;20515;-63
2022/10/26 10:15:22;;;;;;;3.17;2.47;;;20.60;99.90;;;;;;5077767;28;20893;-63
2022/10/26 10:17:51;;;;;;;4.87;3.20;;;20.60;99.90;;;;;;5076115;28;20484;-63
2022/10/26 10:20:24;;;;;;;6.00;3.00;;;20.80;99.90;;;;;;5078265;28;20457;-63
2022/10/26 10:22:56;;;;;;;8.80;3.60;;;21.00;99.90;;;;;;5077465;28;20461;-63
2022/10/26 10:25:32;;;;;;;5.97;3.17;;;21.20;99.90;;;;;;5077288;28;20555;-63
2022/10/26 10:28:02;;;;;;;5.70;2.40;;;21.50;99.90;;;;;;5076649;28;20826;-63
2022/10/26 10:30:33;;;;;;;4.20;2.60;;;21.60;99.90;;;;;;5076306;28;20536;-63
2022/10/26 10:33:11;;;;;;;4.80;3.17;;;21.50;99.90;;;;;;5077513;28;20485;-63
2022/10/26 10:35:47;;;;;;;6.40;3.17;;;21.60;99.90;;;;;;5076692;28;20462;-63
2022/10/26 10:38:19;;;;;;;4.80;3.00;;;21.50;99.90;;;;;;5076200;28;20449;-63
2022/10/26 10:40:52;;;;;;;6.77;3.00;;;21.60;99.90;;;;;;5076627;28;20472;-63
2022/10/26 10:43:20;;;;;;;5.77;3.40;;;21.60;99.90;;;;;;5077228;28;20453;-63
2022/10/26 10:45:51;;;;;;;4.83;3.00;;;21.90;99.90;;;;;;5069049;28;20757;-63
2022/10/26 10:48:20;;;;;;;3.70;2.97;;;22.00;99.90;;;;;;5076188;28;20900;-63
2022/10/26 10:50:58;;;;;;;3.93;3.13;;;22.40;99.90;;;;;;5071391;28;20791;-64
2022/10/26 10:53:35;;;;;;;5.57;3.23;;;22.60;99.90;;;;;;5075972;28;20515;-63
2022/10/26 10:56:13;;;;;;;7.33;3.57;;;22.80;99.90;;;;;;5076948;28;20457;-62
2022/10/26 10:58:48;;;;;;;5.97;3.40;;;22.50;99.90;;;;;;5075805;28;20578;-63
2022/10/26 11:01:22;;;;;;;6.43;3.53;;;22.40;99.90;;;;;;5076937;28;20440;-63
2022/10/26 11:04:24;;;;;;;9.00;3.90;;;22.60;99.90;;;;;;5076740;28;20541;-63
2022/10/26 11:06:54;;;;;;;4.97;3.30;;;22.90;99.90;;;;;;5074180;28;20468;-64
2022/10/26 11:09:27;;;;;;;8.23;3.73;;;22.70;99.90;;;;;;5072079;28;20859;-63
2022/10/26 11:11:58;;;;;;;8.13;3.43;;;22.70;99.90;;;;;;5075719;28;20552;-63
2022/10/26 11:14:29;;;;;;;7.33;3.10;;;22.80;99.90;;;;;;5075571;28;20500;-63
2022/10/26 11:17:08;;;;;;;7.60;3.40;;;22.50;99.90;;;;;;5076010;28;20887;-63
2022/10/26 11:19:41;;;;;;;4.07;3.47;;;22.50;99.90;;;;;;5076384;28;20469;-63
2022/10/26 11:22:15;;;;;;;5.97;3.40;;;22.60;99.90;;;;;;5075715;28;20610;-63
2022/10/26 11:24:47;;;;;;;4.80;3.70;;;22.70;99.90;;;;;;5072227;28;20438;-64
2022/10/26 11:27:29;;;;;;;6.80;3.60;;;22.70;99.90;;;;;;5075861;28;20440;-63
2022/10/26 11:30:03;;;;;;;6.20;4.00;;;22.70;99.90;;;;;;5071602;28;20488;-64
2022/10/26 11:32:36;;;;;;;6.73;3.57;;;22.60;99.90;;;;;;5075373;28;20469;-63
2022/10/26 11:35:13;;;;;;;6.10;3.53;;;22.40;99.90;;;;;;5073088;28;20505;-62
2022/10/26 11:37:49;;;;;;;3.83;3.30;;;22.20;99.90;;;;;;5058058;28;20435;-63
2022/10/26 11:40:25;;;;;;;4.33;3.00;;;22.10;99.90;;;;;;5076564;28;20551;-63
2022/10/26 11:43:10;;;;;;;5.27;3.43;;;22.50;99.90;;;;;;5074047;28;20442;-63
2022/10/26 11:45:42;;;;;;;4.47;3.57;;;23.00;99.90;;;;;;5072183;28;20509;-64
2022/10/26 11:48:17;;;;;;;4.93;3.27;;;23.10;99.90;;;;;;5074759;28;20463;-63
2022/10/26 11:50:48;;;;;;;4.00;3.30;;;23.10;99.90;;;;;;5074896;28;20468;-65
2022/10/26 11:53:17;;;;;;;6.63;3.60;;;23.40;99.90;;;;;;5065064;28;20497;-66
2022/10/26 11:55:49;;;;;;;8.43;3.10;;;23.10;99.90;;;;;;5063432;28;20956;-65
2022/10/26 11:58:17;;;;;;;8.27;3.60;;;22.90;99.90;;;;;;5072212;28;20472;-66
2022/10/26 12:00:52;;;;;;;8.17;3.27;;;22.90;99.90;;;;;;5074755;28;20473;-65
2022/10/26 12:03:27;;;;;;;8.50;2.93;;;23.10;99.90;;;;;;5063977;28;20500;-65
2022/10/26 12:05:54;;;;;;;5.70;3.10;;;22.70;99.90;;;;;;5062420;28;20505;-65
2022/10/26 12:08:27;;;;;;;4.67;3.10;;;22.80;99.90;;;;;;5073951;28;20511;-66
2022/10/26 12:11:07;;;;;;;5.73;3.77;;;22.80;99.90;;;;;;5071574;28;20929;-65
2022/10/26 12:13:38;;;;;;;5.43;2.67;;;22.80;99.90;;;;;;5073280;28;20493;-65
2022/10/26 12:16:13;;;;;;;3.10;2.70;;;23.10;99.90;;;;;;5073586;28;20464;-65
2022/10/26 12:18:48;;;;;;;5.10;3.57;;;22.80;99.90;;;;;;5073049;28;21047;-65
2022/10/26 12:21:16;;;;;;;6.27;3.33;;;22.80;99.90;;;;;;5071905;28;20469;-65
2022/10/26 12:23:56;;;;;;;4.73;3.20;;;22.80;99.90;;;;;;5072478;28;20461;-65
2022/10/26 12:27:00;;;;;;;6.10;3.20;;;22.60;99.90;;;;;;5071477;28;20469;-65
2022/10/26 12:29:41;;;;;;;3.60;3.10;;;22.70;99.90;;;;;;5072536;28;20482;-64
2022/10/26 12:32:48;;;;;;;5.17;2.70;;;22.40;99.90;;;;;;5072300;28;20465;-64
2022/10/26 12:35:44;;;;;;;8.20;3.50;;;22.10;99.90;;;;;;5073242;28;20485;-64
2022/10/26 12:38:47;;;;;;;7.90;3.40;;;22.20;99.90;;;;;;5071544;28;20465;-64
2022/10/26 12:41:25;;;;;;;3.60;2.90;;;22.20;99.90;;;;;;5073316;28;20756;-64
2022/10/26 12:43:58;;;;;;;5.00;3.30;;;22.00;99.90;;;;;;5075165;28;20457;-63
2022/10/26 12:46:44;;;;;;;5.40;3.10;;;22.20;99.90;;;;;;5073581;28;20470;-64
2022/10/26 12:49:58;;;;;;;5.40;3.03;;;22.30;99.90;;;;;;5071764;28;20568;-62
2022/10/26 12:52:49;;;;;;;3.80;3.10;;;22.40;99.90;;;;;;5073452;28;20457;-63
2022/10/26 12:56:00;;;;;;;6.13;3.40;;;22.40;99.90;;;;;;5072138;28;20481;-64
2022/10/26 12:58:57;;;;;;;7.50;3.70;;;22.30;99.90;;;;;;5074366;28;20445;-64
2022/10/26 13:02:12;;;;;;;6.83;3.40;;;22.00;99.90;;;;;;5068707;28;20477;-64
2022/10/26 13:05:07;;;;;;;3.70;2.80;;;21.70;99.90;;;;;;4990690;28;20469;-64
2022/10/26 13:07:36;;;;;;;6.23;3.17;;;21.60;99.90;;;;;;5061534;28;20526;-64
2022/10/26 13:10:18;;;;;;;6.10;3.40;;;21.60;99.90;;;;;;5070151;28;20616;-64
2022/10/26 13:12:50;;;;;;;3.80;2.93;;;21.50;99.90;;;;;;5071064;28;21091;-64
2022/10/26 13:15:23;;;;;;;5.97;3.40;;;21.30;99.90;;;;;;5072650;28;20500;-64
2022/10/26 13:17:58;;;;;;;3.60;3.00;;;21.10;99.90;;;;;;5073381;28;20804;-64
2022/10/26 13:20:26;;;;;;;3.73;2.90;;;21.00;99.90;;;;;;5071504;28;20480;-64